TimeCST,TemperatureF,Dew PointF,Humidity,Sea Level PressureIn,VisibilityMPH,Wind Direction,Wind SpeedMPH,Gust SpeedMPH,PrecipitationIn,Events,Conditions,WindDirDegrees,DateUTC
12:15 AM,28.4,24.8,86,30.15,10.0,WNW,15.0,-,N/A,,Overcast,300,2013-01-03 06:15:00
12:35 AM,28.4,24.8,86,30.16,10.0,WNW,13.8,-,N/A,,Overcast,300,2013-01-03 06:35:00
12:55 AM,28.4,24.8,86,30.16,10.0,NW,16.1,-,N/A,,Overcast,310,2013-01-03 06:55:00
1:15 AM,28.4,24.8,86,30.16,10.0,WNW,15.0,-,N/A,,Overcast,300,2013-01-03 07:15:00
1:35 AM,28.4,23.0,80,30.17,10.0,NNW,13.8,19.6,N/A,,Overcast,330,2013-01-03 07:35:00
1:55 AM,26.6,21.2,80,30.18,10.0,NNW,13.8,20.7,N/A,,Overcast,340,2013-01-03 07:55:00
2:15 AM,26.6,21.2,80,30.19,10.0,North,19.6,25.3,N/A,,Overcast,350,2013-01-03 08:15:00
2:35 AM,24.8,19.4,80,30.20,10.0,NNW,13.8,-,N/A,,Overcast,330,2013-01-03 08:35:00
2:55 AM,23.0,17.6,80,30.20,10.0,NW,16.1,24.2,N/A,,Overcast,320,2013-01-03 08:55:00
3:15 AM,19.4,15.8,86,30.21,7.0,NW,16.1,21.9,N/A,,Overcast,320,2013-01-03 09:15:00
3:35 AM,15.8,8.6,73,30.22,10.0,NNW,15.0,18.4,N/A,,Scattered Clouds,330,2013-01-03 09:35:00
3:55 AM,15.8,6.8,68,30.23,10.0,NNW,15.0,23.0,N/A,,Clear,330,2013-01-03 09:55:00
4:15 AM,12.2,6.8,79,30.23,10.0,NNW,12.7,17.3,N/A,,Clear,330,2013-01-03 10:15:00
4:35 AM,12.2,6.8,79,30.24,10.0,NW,10.4,-,N/A,,Clear,320,2013-01-03 10:35:00
4:55 AM,12.2,6.8,79,30.25,10.0,NW,16.1,19.6,N/A,,Clear,320,2013-01-03 10:55:00
5:15 AM,10.4,5.0,79,30.24,10.0,NNW,17.3,20.7,N/A,,Clear,330,2013-01-03 11:15:00
5:35 AM,10.4,5.0,79,30.26,10.0,NNW,15.0,-,N/A,,Clear,330,2013-01-03 11:35:00
5:55 AM,8.6,3.2,79,30.26,10.0,NNW,13.8,19.6,N/A,,Clear,330,2013-01-03 11:55:00
6:15 AM,8.6,3.2,79,30.27,10.0,NW,12.7,-,N/A,,Clear,320,2013-01-03 12:15:00
6:35 AM,8.6,3.2,79,30.28,10.0,NW,12.7,-,N/A,,Clear,320,2013-01-03 12:35:00
6:55 AM,8.6,3.2,79,30.29,10.0,NNW,11.5,-,N/A,,Clear,330,2013-01-03 12:55:00
7:35 AM,8.6,1.4,73,30.30,10.0,NW,9.2,-,N/A,,Clear,320,2013-01-03 13:35:00
7:55 AM,6.8,1.4,79,30.31,10.0,NW,8.1,-,N/A,,Clear,320,2013-01-03 13:55:00
8:15 AM,5.0,-0.4,78,30.31,10.0,WNW,4.6,-,N/A,,Clear,300,2013-01-03 14:15:00
8:35 AM,5.0,1.4,85,30.31,10.0,West,6.9,-,N/A,,Clear,280,2013-01-03 14:35:00
8:55 AM,5.0,-0.4,78,30.31,10.0,West,6.9,-,N/A,,Clear,280,2013-01-03 14:55:00
9:15 AM,6.8,1.4,79,30.32,10.0,WNW,9.2,-,N/A,,Clear,300,2013-01-03 15:15:00
9:35 AM,8.6,1.4,73,30.33,10.0,WNW,9.2,-,N/A,,Clear,290,2013-01-03 15:35:00
9:55 AM,8.6,3.2,79,30.34,10.0,NW,9.2,-,N/A,,Clear,320,2013-01-03 15:55:00
10:15 AM,10.4,5.0,79,30.34,10.0,NNW,9.2,-,N/A,,Mostly Cloudy,330,2013-01-03 16:15:00
10:35 AM,10.4,6.8,85,30.34,10.0,NW,8.1,-,N/A,Snow,Light Snow,320,2013-01-03 16:35:00
10:55 AM,12.2,8.6,85,30.35,7.0,NNW,6.9,-,N/A,Snow,Light Snow,330,2013-01-03 16:55:00
11:15 AM,14.0,8.6,79,30.34,7.0,NNW,8.1,-,N/A,Snow,Light Snow,330,2013-01-03 17:15:00
11:35 AM,14.0,10.4,86,30.34,4.0,WNW,9.2,-,N/A,Snow,Light Snow,290,2013-01-03 17:35:00
11:55 AM,15.8,10.4,79,30.33,5.0,WNW,9.2,-,N/A,Snow,Light Snow,300,2013-01-03 17:55:00
12:15 PM,15.8,10.4,79,30.32,3.0,WNW,9.2,-,N/A,Snow,Light Snow,300,2013-01-03 18:15:00
12:35 PM,15.8,12.2,86,30.31,4.0,NW,6.9,-,N/A,Snow,Light Snow,310,2013-01-03 18:35:00
12:55 PM,17.6,12.2,79,30.30,4.0,WNW,8.1,-,N/A,Snow,Light Snow,290,2013-01-03 18:55:00
1:15 PM,17.6,12.2,79,30.29,7.0,WNW,8.1,-,N/A,Snow,Light Snow,290,2013-01-03 19:15:00
1:35 PM,19.4,15.8,86,30.28,10.0,West,10.4,-,N/A,Snow,Light Snow,280,2013-01-03 19:35:00
1:55 PM,17.6,14.0,86,30.28,10.0,West,10.4,-,N/A,Snow,Light Snow,280,2013-01-03 19:55:00
2:15 PM,17.6,12.2,79,30.27,10.0,West,8.1,-,N/A,,Mostly Cloudy,270,2013-01-03 20:15:00
2:35 PM,19.4,14.0,80,30.27,10.0,WSW,9.2,-,N/A,,Scattered Clouds,250,2013-01-03 20:35:00
2:55 PM,19.4,12.2,74,30.28,10.0,WSW,9.2,-,N/A,,Scattered Clouds,250,2013-01-03 20:55:00
3:15 PM,17.6,14.0,86,30.28,10.0,West,8.1,-,N/A,,Mostly Cloudy,260,2013-01-03 21:15:00
3:35 PM,19.4,15.8,86,30.28,10.0,WSW,8.1,-,N/A,,Overcast,250,2013-01-03 21:35:00
3:55 PM,19.4,15.8,86,30.28,10.0,WSW,6.9,-,N/A,,Overcast,250,2013-01-03 21:55:00
4:15 PM,19.4,15.8,86,30.29,10.0,WSW,6.9,-,N/A,,Overcast,240,2013-01-03 22:15:00
4:35 PM,19.4,15.8,86,30.29,10.0,SW,8.1,-,N/A,,Overcast,230,2013-01-03 22:35:00
4:55 PM,17.6,15.8,93,30.29,10.0,SW,8.1,-,N/A,,Scattered Clouds,230,2013-01-03 22:55:00
5:15 PM,17.6,15.8,93,30.29,10.0,SW,6.9,-,N/A,,Clear,230,2013-01-03 23:15:00
5:35 PM,17.6,12.2,79,30.29,10.0,SW,4.6,-,N/A,,Clear,220,2013-01-03 23:35:00
5:55 PM,15.8,12.2,86,30.28,10.0,SW,8.1,-,N/A,,Clear,220,2013-01-03 23:55:00
6:15 PM,15.8,12.2,86,30.27,10.0,SSW,9.2,-,N/A,,Clear,210,2013-01-04 00:15:00
6:35 PM,15.8,12.2,86,30.27,10.0,SSW,10.4,-,N/A,,Clear,210,2013-01-04 00:35:00
6:55 PM,17.6,12.2,79,30.27,10.0,SW,10.4,-,N/A,,Clear,220,2013-01-04 00:55:00
7:15 PM,15.8,12.2,86,30.26,10.0,SW,9.2,-,N/A,,Clear,220,2013-01-04 01:15:00
7:35 PM,15.8,12.2,86,30.26,10.0,SW,8.1,-,N/A,,Clear,220,2013-01-04 01:35:00
7:55 PM,15.8,12.2,86,30.26,10.0,SW,11.5,-,N/A,,Clear,220,2013-01-04 01:55:00
8:15 PM,15.8,10.4,79,30.25,10.0,SW,9.2,-,N/A,,Clear,220,2013-01-04 02:15:00
8:35 PM,12.2,10.4,92,30.24,10.0,SSW,8.1,-,N/A,,Clear,210,2013-01-04 02:35:00
8:55 PM,12.2,8.6,85,30.23,10.0,SSW,8.1,-,N/A,,Clear,210,2013-01-04 02:55:00
9:15 PM,12.2,8.6,85,30.23,10.0,SW,5.8,-,N/A,,Clear,220,2013-01-04 03:15:00
9:35 PM,12.2,8.6,85,30.22,10.0,SW,6.9,-,N/A,,Clear,220,2013-01-04 03:35:00
9:55 PM,12.2,8.6,85,30.21,10.0,SW,6.9,-,N/A,,Clear,220,2013-01-04 03:55:00
10:15 PM,12.2,10.4,92,30.21,10.0,SW,8.1,-,N/A,,Clear,220,2013-01-04 04:15:00
10:35 PM,14.0,10.4,86,30.20,10.0,SW,9.2,-,N/A,,Clear,220,2013-01-04 04:35:00
10:55 PM,14.0,10.4,86,30.20,10.0,SW,10.4,-,N/A,,Clear,220,2013-01-04 04:55:00
11:15 PM,12.2,10.4,92,30.20,10.0,SSW,9.2,-,N/A,,Clear,210,2013-01-04 05:15:00
11:35 PM,14.0,10.4,86,30.19,10.0,SW,9.2,-,N/A,,Clear,230,2013-01-04 05:35:00
11:55 PM,15.8,10.4,79,30.18,10.0,SW,10.4,-,N/A,,Clear,220,2013-01-04 05:55:00